Time;durP1;ratioP1;P1;durP2;ratioP2;P2;SDS_P1;SDS_P2;PMS_P1;PMS_P2;Temp;Humidity;BMP_temperature;BMP_pressure;BME280_temperature;BME280_humidity;BME280_pressure;Samples;Min_cycle;Max_cycle;Signal;HPM_P1;HPM_P2
2022/10/10 00:00:28;;;;;;;11.75;5.88;;;12.90;81.20;;;;;;5034304;28;20032;-76
2022/10/10 00:02:54;;;;;;;8.95;5.30;;;12.80;81.50;;;;;;5033625;28;20055;-77
2022/10/10 00:05:19;;;;;;;7.85;5.25;;;12.90;81.70;;;;;;5033909;28;20496;-77
2022/10/10 00:07:45;;;;;;;9.25;5.28;;;12.90;81.70;;;;;;5033779;28;20024;-76
2022/10/10 00:10:10;;;;;;;11.52;5.50;;;12.90;81.50;;;;;;5034037;28;20601;-76
2022/10/10 00:12:36;;;;;;;12.68;5.65;;;13.00;81.40;;;;;;5034111;28;20017;-77
2022/10/10 00:15:02;;;;;;;12.25;5.15;;;13.00;81.30;;;;;;5032773;28;20017;-75
2022/10/10 00:17:28;;;;;;;8.35;4.85;;;13.00;81.30;;;;;;5050363;28;20072;-76
2022/10/10 00:19:53;;;;;;;10.05;5.28;;;13.00;81.40;;;;;;5033580;28;20424;-75
2022/10/10 00:22:19;;;;;;;8.98;5.15;;;13.00;81.20;;;;;;5033313;28;20133;-75
2022/10/10 00:24:45;;;;;;;9.98;4.93;;;13.00;81.20;;;;;;5033919;28;20025;-76
2022/10/10 00:27:10;;;;;;;8.88;5.20;;;13.10;81.30;;;;;;5033841;28;20018;-75
2022/10/10 00:29:36;;;;;;;8.82;5.07;;;13.10;81.10;;;;;;5033707;28;20029;-76
2022/10/10 00:32:01;;;;;;;8.13;5.03;;;13.10;80.90;;;;;;5033518;28;20025;-76
2022/10/10 00:34:27;;;;;;;11.30;5.57;;;13.10;80.90;;;;;;5033480;28;20129;-76
2022/10/10 00:36:53;;;;;;;8.07;4.53;;;13.10;80.90;;;;;;5033259;28;20071;-76
2022/10/10 00:39:18;;;;;;;7.40;5.13;;;13.10;81.00;;;;;;5033328;28;20037;-76
2022/10/10 00:41:44;;;;;;;11.35;5.15;;;13.10;80.90;;;;;;5033445;28;20423;-76
2022/10/10 00:44:12;;;;;;;7.93;5.82;;;13.10;81.00;;;;;;5033254;28;20026;-75
2022/10/10 00:46:38;;;;;;;12.30;5.68;;;13.20;80.90;;;;;;5049772;28;20036;-76
2022/10/10 00:49:11;;;;;;;8.57;5.55;;;13.10;81.00;;;;;;5049745;28;20032;-75
2022/10/10 00:51:37;;;;;;;7.82;5.28;;;13.20;81.70;;;;;;5049432;28;20040;-76
2022/10/10 00:54:07;;;;;;;8.90;5.47;;;13.20;80.70;;;;;;5033135;28;20027;-75
2022/10/10 00:56:40;;;;;;;8.43;5.03;;;13.20;80.90;;;;;;5033001;28;20025;-75
2022/10/10 00:59:09;;;;;;;7.18;4.10;;;13.20;80.60;;;;;;5049798;28;20493;-75
2022/10/10 01:01:36;;;;;;;10.27;4.38;;;13.20;80.70;;;;;;5049771;28;20017;-76
2022/10/10 01:04:03;;;;;;;8.05;4.20;;;13.20;80.70;;;;;;5049377;28;20057;-76
2022/10/10 01:06:28;;;;;;;8.32;3.42;;;13.30;80.60;;;;;;5032113;28;20028;-76
2022/10/10 01:08:56;;;;;;;4.57;3.50;;;13.30;80.40;;;;;;5033049;28;20100;-77
2022/10/10 01:11:36;;;;;;;8.70;3.97;;;13.20;80.20;;;;;;5032679;28;20502;-76
2022/10/10 01:14:39;;;;;;;8.15;4.38;;;13.20;80.30;;;;;;5032690;28;20026;-77
2022/10/10 01:17:19;;;;;;;5.93;4.55;;;13.20;80.40;;;;;;5032655;28;20486;-77
2022/10/10 01:20:17;;;;;;;5.72;4.05;;;13.20;80.50;;;;;;5032501;28;20044;-77
2022/10/10 01:22:53;;;;;;;8.65;4.38;;;13.20;80.30;;;;;;5032239;28;20053;-77
2022/10/10 01:25:37;;;;;;;7.55;4.75;;;13.20;80.40;;;;;;5032322;28;20022;-77
2022/10/10 01:28:23;;;;;;;8.90;5.18;;;13.20;80.50;;;;;;5032326;28;20030;-77
2022/10/10 01:30:49;;;;;;;10.15;5.05;;;13.20;80.60;;;;;;5032277;28;20071;-77
2022/10/10 01:33:28;;;;;;;6.85;5.47;;;13.20;80.70;;;;;;5032220;28;20124;-77
2022/10/10 01:36:19;;;;;;;9.85;5.18;;;13.20;80.60;;;;;;5032118;28;20078;-77
2022/10/10 01:39:12;;;;;;;9.32;4.57;;;13.20;80.80;;;;;;5032251;28;20041;-77
2022/10/10 01:42:00;;;;;;;7.53;4.45;;;13.30;80.80;;;;;;5032034;28;20083;-77
2022/10/10 01:44:26;;;;;;;7.47;4.18;;;13.20;80.50;;;;;;5032236;28;20049;-77
2022/10/10 01:46:51;;;;;;;11.02;5.10;;;13.20;80.60;;;;;;5032156;28;20064;-77
2022/10/10 01:49:17;;;;;;;14.70;5.60;;;13.10;80.90;;;;;;5032058;28;20539;-77
2022/10/10 01:51:56;;;;;;;12.23;5.00;;;13.10;80.90;;;;;;5032023;28;20033;-77
2022/10/10 01:54:48;;;;;;;8.00;4.68;;;13.10;81.10;;;;;;5032285;28;20090;-77
2022/10/10 01:57:34;;;;;;;8.77;4.85;;;13.10;81.40;;;;;;5033619;28;20033;-76
2022/10/10 02:00:14;;;;;;;9.05;4.78;;;13.10;81.40;;;;;;5031696;28;20079;-77
2022/10/10 02:02:46;;;;;;;10.20;4.28;;;13.10;81.20;;;;;;5035911;28;20040;-76
2022/10/10 02:05:19;;;;;;;9.65;4.47;;;13.10;81.20;;;;;;5035441;28;20390;-77
2022/10/10 02:08:15;;;;;;;6.35;4.05;;;13.10;81.30;;;;;;5040650;28;20022;-76
2022/10/10 02:10:53;;;;;;;8.43;4.20;;;13.20;81.20;;;;;;5035605;28;20033;-77
2022/10/10 02:13:23;;;;;;;7.85;3.70;;;13.20;81.20;;;;;;5031987;28;20493;-77
2022/10/10 02:15:52;;;;;;;12.15;4.55;;;13.20;81.20;;;;;;5031971;28;20047;-77
2022/10/10 02:18:22;;;;;;;7.50;4.13;;;13.20;81.00;;;;;;5031635;28;20028;-77
2022/10/10 02:20:49;;;;;;;7.63;4.10;;;13.20;81.90;;;;;;5031879;28;20045;-77
2022/10/10 02:23:18;;;;;;;5.40;3.75;;;13.30;81.10;;;;;;5031642;28;20049;-77
2022/10/10 02:25:51;;;;;;;10.95;4.63;;;13.30;81.10;;;;;;5032061;28;20025;-77
2022/10/10 02:28:22;;;;;;;12.07;4.18;;;13.30;81.00;;;;;;5031815;28;20026;-77
2022/10/10 02:30:54;;;;;;;7.32;4.40;;;13.30;81.10;;;;;;5031833;28;20432;-77
2022/10/10 02:33:31;;;;;;;10.02;4.70;;;13.30;81.20;;;;;;5031603;28;20381;-77
2022/10/10 02:35:57;;;;;;;7.90;4.50;;;13.30;81.30;;;;;;5031954;28;20091;-78
2022/10/10 02:38:24;;;;;;;6.80;3.85;;;13.20;81.00;;;;;;5034041;28;20017;-77
2022/10/10 02:40:51;;;;;;;7.07;4.45;;;13.30;81.40;;;;;;5035695;28;20037;-77
2022/10/10 02:43:18;;;;;;;8.32;4.65;;;13.30;81.30;;;;;;5035671;28;20030;-77
2022/10/10 02:45:44;;;;;;;9.23;4.57;;;13.20;81.10;;;;;;5035374;28;20475;-77
2022/10/10 02:48:10;;;;;;;5.18;4.10;;;13.30;81.20;;;;;;5035424;28;20096;-77
2022/10/10 02:50:37;;;;;;;10.48;3.95;;;13.20;81.00;;;;;;5035483;28;20018;-77
2022/10/10 02:53:03;;;;;;;8.60;4.68;;;13.30;81.20;;;;;;5035714;28;20136;-77
2022/10/10 02:55:29;;;;;;;8.18;4.25;;;13.30;81.10;;;;;;5035496;28;20065;-77
2022/10/10 02:57:55;;;;;;;5.90;3.88;;;13.30;81.00;;;;;;5035644;28;20047;-77
2022/10/10 03:00:20;;;;;;;8.38;4.35;;;13.30;81.20;;;;;;5035188;28;20129;-78
2022/10/10 03:02:46;;;;;;;11.30;5.00;;;13.30;81.20;;;;;;5035061;28;20025;-77
2022/10/10 03:05:13;;;;;;;8.25;5.03;;;13.30;81.20;;;;;;5034809;28;20079;-78
2022/10/10 03:07:38;;;;;;;9.52;5.18;;;13.30;81.10;;;;;;5035267;28;20067;-78
2022/10/10 03:10:07;;;;;;;8.25;4.75;;;13.30;81.20;;;;;;5035261;28;20482;-77
2022/10/10 03:12:34;;;;;;;7.88;4.95;;;13.30;81.30;;;;;;5034862;28;20129;-77
2022/10/10 03:14:59;;;;;;;7.80;4.88;;;13.30;81.20;;;;;;5035007;28;20481;-77
2022/10/10 03:17:25;;;;;;;8.50;5.45;;;13.30;81.30;;;;;;5035351;28;20022;-77
2022/10/10 03:19:50;;;;;;;7.55;5.40;;;13.20;81.40;;;;;;5035012;28;20044;-78
2022/10/10 03:22:16;;;;;;;10.55;6.13;;;13.30;81.50;;;;;;5035079;28;20046;-77
2022/10/10 03:24:41;;;;;;;7.18;4.82;;;13.20;81.60;;;;;;5034929;28;20467;-78
2022/10/10 03:27:07;;;;;;;11.43;5.82;;;13.20;81.60;;;;;;5034833;28;20040;-78
2022/10/10 03:29:33;;;;;;;8.95;5.65;;;13.20;81.80;;;;;;5034666;28;20085;-78
2022/10/10 03:31:58;;;;;;;11.80;5.25;;;13.20;81.80;;;;;;5034591;28;20022;-78
2022/10/10 03:34:24;;;;;;;7.57;4.80;;;13.20;82.00;;;;;;5034644;28;20470;-77
2022/10/10 03:36:49;;;;;;;10.95;4.95;;;13.20;82.00;;;;;;5034661;28;20120;-78
2022/10/10 03:39:15;;;;;;;7.45;4.65;;;13.20;82.00;;;;;;5034357;28;20037;-77
2022/10/10 03:41:41;;;;;;;8.27;4.35;;;13.30;82.20;;;;;;5050761;28;20108;-78
2022/10/10 03:44:06;;;;;;;7.47;4.43;;;13.30;82.00;;;;;;5034104;28;20029;-77
2022/10/10 03:46:32;;;;;;;7.82;5.05;;;13.30;82.00;;;;;;5034043;28;20025;-79
2022/10/10 03:48:57;;;;;;;11.98;5.85;;;13.30;82.00;;;;;;5034178;28;20032;-77
2022/10/10 03:51:24;;;;;;;12.48;5.22;;;13.30;82.00;;;;;;5034294;28;20026;-79
2022/10/10 03:53:50;;;;;;;10.68;5.22;;;13.30;82.00;;;;;;5034591;28;20458;-78
2022/10/10 03:56:15;;;;;;;9.00;4.57;;;13.30;82.10;;;;;;5034096;28;20037;-78
2022/10/10 03:58:41;;;;;;;7.60;5.43;;;13.30;82.20;;;;;;5033901;28;20473;-78
2022/10/10 04:01:06;;;;;;;13.18;5.50;;;13.20;82.30;;;;;;5033690;28;20246;-78
2022/10/10 04:03:32;;;;;;;13.75;4.80;;;13.30;82.60;;;;;;5034141;28;20021;-77
2022/10/10 04:05:58;;;;;;;12.07;4.78;;;13.30;82.60;;;;;;5033745;28;20036;-78
2022/10/10 04:08:24;;;;;;;6.90;4.55;;;13.30;82.60;;;;;;5033951;28;20076;-78
2022/10/10 04:10:51;;;;;;;10.15;4.78;;;13.30;82.50;;;;;;5034101;28;20029;-78
2022/10/10 04:13:19;;;;;;;12.48;5.07;;;13.30;82.50;;;;;;5033931;28;20489;-78
2022/10/10 04:15:45;;;;;;;9.02;5.07;;;13.30;82.60;;;;;;5033996;28;20442;-77
2022/10/10 04:18:11;;;;;;;8.82;5.60;;;13.30;82.90;;;;;;5033842;28;20124;-76
2022/10/10 04:20:36;;;;;;;10.98;5.65;;;13.30;82.80;;;;;;5033708;28;20029;-77
2022/10/10 04:23:03;;;;;;;8.85;5.43;;;13.30;82.90;;;;;;5033681;28;20132;-77
2022/10/10 04:25:28;;;;;;;8.18;5.05;;;13.30;83.10;;;;;;5033680;28;20180;-77
2022/10/10 04:27:54;;;;;;;9.35;4.90;;;13.20;83.20;;;;;;5033230;28;20057;-77
2022/10/10 04:30:20;;;;;;;9.35;5.30;;;13.20;83.10;;;;;;5033182;28;20017;-77
2022/10/10 04:32:45;;;;;;;11.63;5.35;;;13.20;83.20;;;;;;5033412;28;20112;-77
2022/10/10 04:35:11;;;;;;;10.88;5.32;;;13.20;83.50;;;;;;5033525;28;20022;-76
2022/10/10 04:37:37;;;;;;;10.73;5.10;;;13.20;83.90;;;;;;5033275;28;20056;-77
2022/10/10 04:40:03;;;;;;;10.07;4.55;;;13.20;83.80;;;;;;5033321;28;20456;-78
2022/10/10 04:42:29;;;;;;;7.53;4.70;;;13.30;84.00;;;;;;5033180;28;20108;-78
2022/10/10 04:44:55;;;;;;;10.20;5.28;;;13.30;83.70;;;;;;5033050;28;20116;-76
2022/10/10 04:47:20;;;;;;;12.88;5.93;;;13.20;83.80;;;;;;5033243;28;20018;-76
2022/10/10 04:49:46;;;;;;;11.48;5.13;;;13.20;84.20;;;;;;5033079;28;20069;-77
2022/10/10 04:52:12;;;;;;;14.88;5.60;;;13.20;84.40;;;;;;5033083;28;20445;-77
2022/10/10 04:54:38;;;;;;;9.25;5.07;;;13.20;84.60;;;;;;5033390;28;20497;-77
2022/10/10 04:57:05;;;;;;;10.15;5.32;;;13.30;84.80;;;;;;5033084;28;20018;-77
2022/10/10 04:59:31;;;;;;;9.65;5.82;;;13.20;84.80;;;;;;5032947;28;20040;-77
2022/10/10 05:01:57;;;;;;;10.55;5.60;;;13.20;84.80;;;;;;5032688;28;20053;-77
2022/10/10 05:04:22;;;;;;;11.52;5.90;;;13.30;85.00;;;;;;5032718;28;20138;-77
2022/10/10 05:06:48;;;;;;;8.52;5.28;;;13.30;86.00;;;;;;5032618;28;20025;-78
2022/10/10 05:09:13;;;;;;;10.10;5.25;;;13.30;85.10;;;;;;5032464;28;20073;-78
2022/10/10 05:11:39;;;;;;;7.80;5.13;;;13.30;85.20;;;;;;5032215;28;20025;-78
2022/10/10 05:14:04;;;;;;;8.57;6.15;;;13.30;85.10;;;;;;5032474;28;20033;-75
2022/10/10 05:16:30;;;;;;;14.93;6.22;;;13.30;85.40;;;;;;5032249;28;20024;-76
2022/10/10 05:19:00;;;;;;;13.98;6.60;;;13.30;85.50;;;;;;5032286;28;20413;-76
2022/10/10 05:21:26;;;;;;;11.15;6.63;;;13.20;85.70;;;;;;5031803;28;20414;-78
2022/10/10 05:23:53;;;;;;;10.77;6.72;;;13.20;85.80;;;;;;5032343;28;20087;-77
2022/10/10 05:26:19;;;;;;;10.88;5.88;;;13.20;86.00;;;;;;5032073;28;20125;-77
2022/10/10 05:28:45;;;;;;;14.93;7.22;;;13.30;85.90;;;;;;5031959;28;20036;-77
2022/10/10 05:31:11;;;;;;;13.65;7.13;;;13.20;85.80;;;;;;5031738;28;20067;-79
2022/10/10 05:33:37;;;;;;;15.13;7.30;;;13.30;85.80;;;;;;5031440;28;20029;-77
2022/10/10 05:36:09;;;;;;;17.38;7.03;;;13.30;85.90;;;;;;5031923;28;20155;-77
2022/10/10 05:38:35;;;;;;;13.77;6.50;;;13.30;86.10;;;;;;5031788;28;20037;-78
2022/10/10 05:41:01;;;;;;;11.35;6.28;;;13.30;85.90;;;;;;5031698;28;20101;-79
2022/10/10 05:43:27;;;;;;;11.35;5.85;;;13.30;86.00;;;;;;5033113;28;20032;-78
2022/10/10 05:45:53;;;;;;;13.27;6.50;;;13.30;85.90;;;;;;5032015;28;20033;-78
2022/10/10 05:48:18;;;;;;;11.60;5.38;;;13.40;85.80;;;;;;5031605;28;20524;-78
2022/10/10 05:50:50;;;;;;;9.27;5.07;;;13.40;86.50;;;;;;5031815;28;20481;-78
2022/10/10 05:53:16;;;;;;;10.60;6.03;;;13.40;85.70;;;;;;5031520;28;20041;-77
2022/10/10 05:55:43;;;;;;;12.27;5.75;;;13.40;85.60;;;;;;5031463;28;20025;-78
2022/10/10 05:58:12;;;;;;;11.85;6.20;;;13.40;85.80;;;;;;5031740;28;20466;-78
2022/10/10 06:00:38;;;;;;;13.48;5.85;;;13.50;86.50;;;;;;5031577;28;20037;-77
2022/10/10 06:03:04;;;;;;;10.75;5.82;;;13.50;85.60;;;;;;5031426;28;20025;-77
2022/10/10 06:05:29;;;;;;;12.48;4.97;;;13.50;85.60;;;;;;5031480;28;20039;-77
2022/10/10 06:07:55;;;;;;;7.72;4.55;;;13.50;85.70;;;;;;5031351;28;20112;-77
2022/10/10 06:10:20;;;;;;;12.27;5.53;;;13.50;85.80;;;;;;5031382;28;20052;-78
2022/10/10 06:12:46;;;;;;;11.52;4.93;;;13.50;85.80;;;;;;5030090;28;20029;-78
2022/10/10 06:15:12;;;;;;;6.05;4.15;;;13.60;85.70;;;;;;5031332;28;20477;-77
2022/10/10 06:17:37;;;;;;;9.40;4.15;;;13.60;85.70;;;;;;5031141;28;20025;-77
2022/10/10 06:20:03;;;;;;;8.82;3.70;;;13.70;85.90;;;;;;5031071;28;20132;-76
2022/10/10 06:22:29;;;;;;;8.25;5.55;;;13.80;86.10;;;;;;5030921;28;20049;-76
2022/10/10 06:24:54;;;;;;;9.15;4.88;;;13.90;86.00;;;;;;5031491;28;20120;-74
2022/10/10 06:27:20;;;;;;;5.85;4.97;;;14.00;85.30;;;;;;5031271;28;20065;-75
2022/10/10 06:29:46;;;;;;;17.20;5.80;;;14.10;84.80;;;;;;5030886;28;20485;-73
2022/10/10 06:32:12;;;;;;;13.27;5.60;;;14.20;85.90;;;;;;5030945;28;20139;-74
2022/10/10 06:34:37;;;;;;;16.58;5.70;;;14.40;86.10;;;;;;5031036;28;20083;-74
2022/10/10 06:37:03;;;;;;;14.50;5.85;;;14.60;85.30;;;;;;5030990;28;20026;-74
2022/10/10 06:39:29;;;;;;;13.18;5.65;;;14.70;84.70;;;;;;5031301;28;20033;-75
2022/10/10 06:41:55;;;;;;;8.93;4.60;;;14.80;82.90;;;;;;5031302;28;20048;-74
2022/10/10 06:44:21;;;;;;;10.77;5.03;;;14.90;82.40;;;;;;5031215;28;20052;-76
2022/10/10 06:46:46;;;;;;;13.02;5.90;;;14.90;81.90;;;;;;5031283;28;20018;-74
2022/10/10 06:49:12;;;;;;;12.20;5.45;;;14.90;82.30;;;;;;5031159;28;20022;-80
2022/10/10 06:51:38;;;;;;;10.43;5.22;;;14.90;81.90;;;;;;5030855;28;20385;-74
2022/10/10 06:54:04;;;;;;;10.88;5.30;;;14.90;81.80;;;;;;5031486;28;20021;-75
2022/10/10 06:56:31;;;;;;;11.07;5.50;;;14.90;82.10;;;;;;5031287;28;20028;-77
2022/10/10 06:58:56;;;;;;;13.25;5.68;;;14.90;81.70;;;;;;5030737;28;20030;-77
2022/10/10 07:01:24;;;;;;;10.55;5.70;;;14.80;81.30;;;;;;5031026;28;20033;-77
2022/10/10 07:03:50;;;;;;;8.48;5.30;;;14.70;81.80;;;;;;5030697;28;20036;-77
2022/10/10 07:06:16;;;;;;;9.55;4.82;;;14.60;82.20;;;;;;5032275;28;20029;-77
2022/10/10 07:08:42;;;;;;;10.98;5.43;;;14.60;82.50;;;;;;5031056;28;20032;-77
2022/10/10 07:11:08;;;;;;;15.40;5.07;;;14.50;82.90;;;;;;5032439;28;20037;-77
2022/10/10 07:13:35;;;;;;;17.38;6.47;;;14.50;82.80;;;;;;5031101;28;20018;-77
2022/10/10 07:16:02;;;;;;;10.85;5.40;;;14.50;82.90;;;;;;5030963;28;20029;-77
2022/10/10 07:18:28;;;;;;;10.73;6.32;;;14.50;83.10;;;;;;5031008;28;20029;-77
2022/10/10 07:20:58;;;;;;;11.15;5.65;;;14.50;83.20;;;;;;5031069;28;20426;-77
2022/10/10 07:23:24;;;;;;;12.73;5.53;;;14.40;83.40;;;;;;5031625;28;20061;-77
2022/10/10 07:25:50;;;;;;;14.82;5.82;;;14.50;83.60;;;;;;5034453;28;20061;-77
2022/10/10 07:28:16;;;;;;;8.07;4.78;;;14.50;83.90;;;;;;5034606;28;20414;-77
2022/10/10 07:30:42;;;;;;;8.98;5.10;;;14.50;83.80;;;;;;5034406;28;20055;-77
2022/10/10 07:33:09;;;;;;;8.40;4.82;;;14.60;83.80;;;;;;5034343;28;20124;-77
2022/10/10 07:35:35;;;;;;;8.00;4.72;;;14.60;83.50;;;;;;5034318;28;20018;-77
2022/10/10 07:38:01;;;;;;;10.27;6.22;;;14.60;83.60;;;;;;5034444;28;20363;-77
2022/10/10 07:40:26;;;;;;;11.85;5.80;;;14.60;83.50;;;;;;5034423;28;20466;-77
2022/10/10 07:42:52;;;;;;;14.35;6.72;;;14.70;83.60;;;;;;5034497;28;20022;-77
2022/10/10 07:45:18;;;;;;;17.27;6.72;;;14.60;83.50;;;;;;5034258;28;20056;-77
2022/10/10 07:47:43;;;;;;;12.32;6.80;;;14.60;83.50;;;;;;5034331;28;20048;-77
2022/10/10 07:50:10;;;;;;;14.50;7.50;;;14.70;83.50;;;;;;5034129;28;20061;-77
2022/10/10 07:52:37;;;;;;;16.15;8.15;;;14.70;83.80;;;;;;5034059;28;20478;-76
2022/10/10 07:55:03;;;;;;;17.25;7.75;;;14.70;83.70;;;;;;5034167;28;20033;-77
2022/10/10 07:57:33;;;;;;;13.07;7.63;;;14.70;83.50;;;;;;5033881;28;20482;-76
2022/10/10 08:00:06;;;;;;;14.73;6.38;;;14.80;83.60;;;;;;5033813;28;20486;-76
2022/10/10 08:02:32;;;;;;;17.65;5.75;;;14.90;83.50;;;;;;5033739;28;20075;-77
2022/10/10 08:04:57;;;;;;;17.02;6.65;;;14.90;83.50;;;;;;5033985;28;20120;-77
2022/10/10 08:07:23;;;;;;;15.18;7.53;;;14.90;83.20;;;;;;5033683;28;20036;-77
2022/10/10 08:09:49;;;;;;;16.65;8.77;;;15.00;82.90;;;;;;5033650;28;20101;-76
2022/10/10 08:12:14;;;;;;;23.70;14.13;;;15.00;82.60;;;;;;5033431;28;20429;-77
2022/10/10 08:14:40;;;;;;;19.10;10.38;;;15.00;82.70;;;;;;5033944;28;20572;-76
2022/10/10 08:17:06;;;;;;;14.45;8.23;;;15.00;83.10;;;;;;5033543;28;20053;-77
2022/10/10 08:19:31;;;;;;;14.00;7.00;;;15.10;83.20;;;;;;5033479;28;20033;-77
2022/10/10 08:21:57;;;;;;;13.80;5.07;;;15.10;84.20;;;;;;5033232;28;20229;-77
2022/10/10 08:24:23;;;;;;;15.82;5.35;;;15.20;83.30;;;;;;5033640;28;20488;-77
2022/10/10 08:26:49;;;;;;;10.40;5.80;;;15.20;83.20;;;;;;5033327;28;20048;-77
2022/10/10 08:29:15;;;;;;;12.60;4.80;;;15.30;83.10;;;;;;5033301;28;20030;-77
2022/10/10 08:31:41;;;;;;;14.25;5.20;;;15.40;82.80;;;;;;5033092;28;20071;-77
2022/10/10 08:34:08;;;;;;;10.45;4.65;;;15.40;83.20;;;;;;5032927;28;20662;-77
2022/10/10 08:36:34;;;;;;;13.85;4.78;;;15.40;82.70;;;;;;5032046;28;20017;-77
2022/10/10 08:39:00;;;;;;;7.25;3.80;;;15.50;82.80;;;;;;5033086;28;20028;-77
2022/10/10 08:41:34;;;;;;;8.00;3.55;;;15.60;82.90;;;;;;5033024;28;20025;-77
2022/10/10 08:44:09;;;;;;;12.80;5.97;;;15.70;83.00;;;;;;5032890;28;20021;-78
2022/10/10 08:46:54;;;;;;;14.20;6.03;;;15.60;81.90;;;;;;5032808;28;20112;-78
2022/10/10 08:49:25;;;;;;;12.90;5.35;;;15.70;81.60;;;;;;5032934;28;20508;-77
2022/10/10 08:52:04;;;;;;;9.52;5.38;;;15.80;81.20;;;;;;5032770;28;20033;-77
2022/10/10 08:54:33;;;;;;;8.10;5.72;;;15.90;81.20;;;;;;5033636;28;20557;-78
2022/10/10 08:57:03;;;;;;;16.17;5.47;;;15.90;80.90;;;;;;5032709;28;20042;-79
2022/10/10 08:59:37;;;;;;;8.30;5.47;;;16.00;80.30;;;;;;5032609;28;20022;-77
2022/10/10 09:02:28;;;;;;;11.77;5.28;;;16.10;80.20;;;;;;5032522;28;20029;-78
2022/10/10 09:04:56;;;;;;;8.88;5.13;;;16.30;80.20;;;;;;5032728;28;20026;-78
2022/10/10 09:07:44;;;;;;;8.02;3.92;;;16.40;80.00;;;;;;5033609;28;20033;-77
2022/10/10 09:10:34;;;;;;;12.07;4.35;;;16.50;79.20;;;;;;5032237;28;20030;-78
2022/10/10 09:13:28;;;;;;;5.57;3.10;;;16.60;78.10;;;;;;5032675;28;20028;-78
2022/10/10 09:16:01;;;;;;;9.48;3.42;;;16.70;77.70;;;;;;5032573;28;20120;-78
2022/10/10 09:18:51;;;;;;;6.22;2.78;;;16.80;77.60;;;;;;5032316;28;20048;-77
2022/10/10 09:21:33;;;;;;;7.40;3.00;;;16.90;77.60;;;;;;5032048;28;20493;-77
2022/10/10 09:24:05;;;;;;;6.63;2.97;;;17.00;77.30;;;;;;5032115;28;20124;-77
2022/10/10 09:26:38;;;;;;;6.07;2.92;;;17.10;77.10;;;;;;5032219;28;20394;-78
2022/10/10 09:29:17;;;;;;;10.10;2.75;;;17.20;77.00;;;;;;5031752;28;20060;-77
2022/10/10 09:31:51;;;;;;;8.98;2.05;;;17.30;75.80;;;;;;5031795;28;20029;-76
2022/10/10 09:34:36;;;;;;;11.48;2.00;;;17.30;73.40;;;;;;5032018;28;20037;-76
2022/10/10 09:37:03;;;;;;;9.85;2.40;;;17.40;70.10;;;;;;5031033;28;20025;-77
2022/10/10 09:39:37;;;;;;;8.18;2.40;;;17.50;70.60;;;;;;5030655;28;20041;-76
2022/10/10 09:42:12;;;;;;;6.33;1.70;;;17.50;70.80;;;;;;5033899;28;20021;-76
2022/10/10 09:44:39;;;;;;;5.22;2.38;;;17.60;70.10;;;;;;5038565;28;20029;-76
2022/10/10 09:47:05;;;;;;;12.48;4.40;;;17.60;70.30;;;;;;5031642;28;20033;-75
2022/10/10 09:49:32;;;;;;;9.23;4.70;;;17.70;70.30;;;;;;5031958;28;20445;-75
2022/10/10 09:52:02;;;;;;;7.65;2.92;;;17.70;70.00;;;;;;5031816;28;20022;-75
2022/10/10 09:54:27;;;;;;;4.65;2.35;;;17.80;69.70;;;;;;5031463;28;20116;-75
2022/10/10 09:56:58;;;;;;;4.25;2.05;;;17.90;69.30;;;;;;5031438;28;20049;-75
2022/10/10 09:59:38;;;;;;;8.32;2.17;;;17.80;68.20;;;;;;5031230;28;20033;-78
2022/10/10 10:02:19;;;;;;;10.50;2.22;;;17.90;67.60;;;;;;5031487;28;20474;-75
2022/10/10 10:04:46;;;;;;;6.78;2.53;;;18.00;67.50;;;;;;5031301;28;20128;-76
2022/10/10 10:07:30;;;;;;;8.50;2.00;;;18.10;67.10;;;;;;5031131;28;20079;-76
2022/10/10 10:10:24;;;;;;;8.20;2.47;;;18.40;66.50;;;;;;5031378;28;20466;-76
2022/10/10 10:12:51;;;;;;;13.27;2.60;;;18.80;65.90;;;;;;5028175;28;20087;-76
2022/10/10 10:15:23;;;;;;;6.88;2.40;;;19.00;65.00;;;;;;5031405;28;20437;-75
2022/10/10 10:18:19;;;;;;;14.40;2.58;;;19.10;63.90;;;;;;5029804;28;20025;-76
2022/10/10 10:20:48;;;;;;;8.20;1.95;;;19.20;63.10;;;;;;5028330;28;20038;-76
2022/10/10 10:23:30;;;;;;;12.23;2.60;;;19.30;61.90;;;;;;5030633;28;20121;-75
2022/10/10 10:26:21;;;;;;;9.05;2.05;;;19.40;60.00;;;;;;5030570;28;20030;-74
2022/10/10 10:28:48;;;;;;;10.98;2.47;;;19.60;58.80;;;;;;5031956;28;20033;-75
2022/10/10 10:31:30;;;;;;;10.00;2.63;;;19.80;58.50;;;;;;5031304;28;20111;-75
2022/10/10 10:34:19;;;;;;;8.57;2.70;;;20.00;57.50;;;;;;5031007;28;20026;-75
2022/10/10 10:37:13;;;;;;;8.25;2.88;;;20.20;57.60;;;;;;5030837;28;20139;-75
2022/10/10 10:40:03;;;;;;;7.20;2.40;;;20.20;57.20;;;;;;5029792;28;20049;-75
2022/10/10 10:42:43;;;;;;;12.65;2.70;;;20.20;56.40;;;;;;5030956;28;20025;-74
2022/10/10 10:45:31;;;;;;;11.88;2.50;;;20.20;55.10;;;;;;5030655;28;20025;-76
2022/10/10 10:48:19;;;;;;;6.78;2.00;;;20.40;54.20;;;;;;5030789;28;20026;-75
2022/10/10 10:50:57;;;;;;;10.25;2.55;;;20.80;53.30;;;;;;5030266;28;20021;-76
2022/10/10 10:54:00;;;;;;;15.93;2.38;;;21.30;51.20;;;;;;5029747;28;20132;-75
2022/10/10 10:56:45;;;;;;;13.07;2.40;;;21.20;47.50;;;;;;5030566;28;20083;-75
2022/10/10 10:59:17;;;;;;;8.68;2.88;;;21.10;48.20;;;;;;5032448;28;20022;-76
2022/10/10 11:01:50;;;;;;;25.67;3.03;;;21.10;49.00;;;;;;5034134;28;20609;-75
2022/10/10 11:04:42;;;;;;;12.45;2.95;;;21.30;47.90;;;;;;5034305;28;20041;-75
2022/10/10 11:07:16;;;;;;;12.55;2.35;;;21.50;48.00;;;;;;5033815;28;20252;-75
2022/10/10 11:09:50;;;;;;;14.40;2.80;;;21.40;47.90;;;;;;5034455;28;20515;-75
2022/10/10 11:12:36;;;;;;;14.32;3.33;;;21.40;48.30;;;;;;5034718;28;20034;-75
2022/10/10 11:15:11;;;;;;;14.80;2.60;;;21.60;47.90;;;;;;5034207;28;20026;-76
2022/10/10 11:17:49;;;;;;;8.05;2.10;;;22.00;47.50;;;;;;5033679;28;20184;-76
2022/10/10 11:20:40;;;;;;;9.45;2.15;;;22.50;46.80;;;;;;5034245;28;20060;-76
2022/10/10 11:23:20;;;;;;;13.38;2.35;;;22.50;45.60;;;;;;5034089;28;20041;-76
2022/10/10 11:25:54;;;;;;;16.98;3.22;;;22.50;45.60;;;;;;5033913;28;20124;-78
2022/10/10 11:28:31;;;;;;;11.07;2.72;;;22.30;45.10;;;;;;5033724;28;20033;-75
2022/10/10 11:31:02;;;;;;;10.70;2.60;;;22.20;46.10;;;;;;5033792;28;20442;-75
2022/10/10 11:33:34;;;;;;;13.65;3.00;;;22.50;45.70;;;;;;5034172;28;20045;-76
2022/10/10 11:36:19;;;;;;;10.93;2.65;;;22.70;44.30;;;;;;5033579;28;20021;-76
2022/10/10 11:39:10;;;;;;;14.45;2.58;;;23.10;44.90;;;;;;5033816;28;20021;-76
2022/10/10 11:41:46;;;;;;;16.88;3.05;;;23.20;42.00;;;;;;5033543;28;20021;-76
2022/10/10 11:44:31;;;;;;;14.60;3.85;;;23.10;43.40;;;;;;5033831;28;20112;-76
2022/10/10 11:47:05;;;;;;;12.70;2.67;;;23.30;41.20;;;;;;5033732;28;20057;-77
2022/10/10 11:49:37;;;;;;;9.23;3.03;;;23.30;41.90;;;;;;5033956;28;20112;-77
2022/10/10 11:52:25;;;;;;;13.93;2.63;;;23.50;42.20;;;;;;5033576;28;20026;-78
2022/10/10 11:54:58;;;;;;;16.08;2.92;;;23.60;40.80;;;;;;5033702;28;20416;-77
2022/10/10 11:57:46;;;;;;;18.50;3.30;;;23.10;41.10;;;;;;5033920;28;20022;-77
2022/10/10 12:00:14;;;;;;;15.10;3.08;;;22.70;41.60;;;;;;5033868;28;20524;-77
2022/10/10 12:02:41;;;;;;;18.77;3.05;;;22.60;42.80;;;;;;5033704;28;20018;-77
2022/10/10 12:05:26;;;;;;;12.57;3.20;;;23.00;43.00;;;;;;5033458;28;20029;-78
2022/10/10 12:08:05;;;;;;;20.08;2.95;;;23.60;41.00;;;;;;5033630;28;20142;-76
2022/10/10 12:10:42;;;;;;;15.85;3.58;;;23.80;40.30;;;;;;5032130;28;20026;-76
2022/10/10 12:13:33;;;;;;;13.45;2.95;;;24.00;39.30;;;;;;5033115;28;20029;-77
2022/10/10 12:16:13;;;;;;;16.40;3.72;;;24.20;39.20;;;;;;5024179;28;20034;-77
2022/10/10 12:18:53;;;;;;;11.27;2.67;;;24.30;39.20;;;;;;5032939;28;20032;-77
2022/10/10 12:21:23;;;;;;;17.17;3.45;;;24.10;39.30;;;;;;5033492;28;20037;-77
2022/10/10 12:23:58;;;;;;;13.88;2.88;;;24.60;39.00;;;;;;5033400;28;20033;-77
2022/10/10 12:26:25;;;;;;;18.15;3.58;;;24.80;39.10;;;;;;5033580;28;20021;-77
2022/10/10 12:29:08;;;;;;;12.95;2.92;;;25.00;38.80;;;;;;5033458;28;20026;-80
2022/10/10 12:31:36;;;;;;;16.73;2.90;;;25.20;37.70;;;;;;5033546;28;20033;-80
2022/10/10 12:34:12;;;;;;;16.55;4.00;;;25.20;36.40;;;;;;5033256;28;20386;-80
2022/10/10 12:36:52;;;;;;;15.98;3.50;;;24.80;35.50;;;;;;5033148;28;20470;-79
2022/10/10 12:39:17;;;;;;;15.82;3.70;;;25.00;35.90;;;;;;5033306;28;20394;-79
2022/10/10 12:41:55;;;;;;;14.60;3.70;;;24.80;36.40;;;;;;5033204;28;20026;-80
2022/10/10 12:44:22;;;;;;;12.52;3.20;;;25.10;36.50;;;;;;5033151;28;20064;-78
2022/10/10 12:47:13;;;;;;;16.15;3.47;;;25.70;35.80;;;;;;5033103;28;20021;-79
2022/10/10 12:50:11;;;;;;;13.43;3.40;;;26.20;35.80;;;;;;5049618;28;20032;-78
2022/10/10 12:52:50;;;;;;;11.00;2.88;;;26.20;34.60;;;;;;5032654;28;20029;-75
2022/10/10 12:55:22;;;;;;;18.52;3.00;;;26.60;34.60;;;;;;5033938;28;20033;-79
2022/10/10 12:57:51;;;;;;;16.38;2.95;;;26.90;32.40;;;;;;5048962;28;20163;-79
2022/10/10 13:00:21;;;;;;;14.38;3.53;;;26.90;31.50;;;;;;5031744;28;20045;-79